Time;durP1;ratioP1;P1;durP2;ratioP2;P2;SDS_P1;SDS_P2;PMS_P1;PMS_P2;Temp;Humidity;BMP_temperature;BMP_pressure;BME280_temperature;BME280_humidity;BME280_pressure;Samples;Min_cycle;Max_cycle;Signal;HPM_P1;HPM_P2
2023/09/24 00:02:11;;;;;;;4.68;1.50;;;20.70;93.20;;;;;;5031882;28;20080;-74
2023/09/24 00:04:37;;;;;;;4.88;1.50;;;;;;;;;;4998041;28;20041;-74
2023/09/24 00:07:05;;;;;;;4.10;1.50;;;;;;;;;;5010344;28;20141;-74
2023/09/24 00:09:32;;;;;;;4.15;1.50;;;;;;;;;;5015033;28;20049;-74
2023/09/24 00:11:59;;;;;;;4.45;1.60;;;;;;;;;;4999101;28;20060;-74
2023/09/24 00:14:30;;;;;;;6.00;1.38;;;;;;;;;;5014227;28;20046;-75
2023/09/24 00:16:57;;;;;;;3.55;1.50;;;;;;;;;;5031664;28;20041;-75
2023/09/24 00:19:24;;;;;;;5.05;1.60;;;;;;;;;;5015328;28;20045;-74
2023/09/24 00:21:51;;;;;;;3.70;1.38;;;;;;;;;;5012850;28;20042;-74
2023/09/24 00:24:17;;;;;;;4.90;1.25;;;;;;;;;;5026698;28;20056;-72
2023/09/24 00:26:45;;;;;;;4.53;1.55;;;20.60;93.10;;;;;;5031362;28;20048;-72
2023/09/24 00:29:12;;;;;;;4.45;1.30;;;;;;;;;;5033376;28;20057;-75
2023/09/24 00:31:38;;;;;;;5.45;1.70;;;;;;;;;;5032268;28;20045;-75
2023/09/24 00:34:05;;;;;;;4.40;1.38;;;;;;;;;;5013620;28;20517;-73
2023/09/24 00:36:33;;;;;;;4.38;1.45;;;20.70;91.90;;;;;;5031724;28;20072;-74
2023/09/24 00:38:59;;;;;;;4.10;1.50;;;;;;;;;;5031888;28;20111;-74
2023/09/24 00:41:26;;;;;;;5.55;1.40;;;;;;;;;;5030403;28;20033;-73
2023/09/24 00:43:52;;;;;;;4.30;1.50;;;;;;;;;;5025430;28;20100;-72
2023/09/24 00:46:21;;;;;;;4.53;1.40;;;;;;;;;;5032438;28;20115;-75
2023/09/24 00:48:47;;;;;;;3.28;1.33;;;;;;;;;;5030070;28;20426;-75
2023/09/24 00:51:18;;;;;;;5.68;1.70;;;20.60;93.00;;;;;;5032855;28;20454;-74
2023/09/24 00:53:44;;;;;;;3.38;1.40;;;;;;;;;;5031584;28;20380;-74
2023/09/24 00:56:11;;;;;;;3.47;1.20;;;;;;;;;;5032675;28;20419;-74
2023/09/24 00:58:37;;;;;;;5.20;1.85;;;20.50;93.00;;;;;;5032348;28;20120;-74
2023/09/24 01:01:04;;;;;;;3.78;1.38;;;;;;;;;;5031220;28;20053;-74
2023/09/24 01:03:31;;;;;;;4.88;1.70;;;;;;;;;;5028286;28;20029;-74
2023/09/24 01:05:57;;;;;;;3.75;1.33;;;;;;;;;;5022824;28;20487;-75
2023/09/24 01:08:24;;;;;;;3.40;1.50;;;20.80;91.80;;;;;;5031070;28;20103;-75
2023/09/24 01:10:51;;;;;;;4.07;1.38;;;20.60;91.40;;;;;;5031401;28;20065;-75
2023/09/24 01:13:20;;;;;;;4.32;1.42;;;;;;;;;;5012524;28;20061;-74
2023/09/24 01:15:50;;;;;;;4.97;1.58;;;20.50;91.10;;;;;;5030001;28;20069;-73
2023/09/24 01:18:20;;;;;;;4.05;1.50;;;20.60;91.80;;;;;;5014568;28;20049;-74
2023/09/24 01:20:46;;;;;;;4.32;1.50;;;;;;;;;;5029923;28;20048;-74
2023/09/24 01:23:15;;;;;;;4.53;1.30;;;20.50;92.90;;;;;;5031781;28;20072;-74
2023/09/24 01:25:43;;;;;;;3.72;1.45;;;20.50;91.30;;;;;;5029601;28;20067;-74
2023/09/24 01:28:10;;;;;;;4.50;1.48;;;20.50;92.90;;;;;;5014988;28;20402;-74
2023/09/24 01:30:37;;;;;;;4.00;1.48;;;;;;;;;;5014418;28;20045;-72
2023/09/24 01:33:03;;;;;;;4.85;1.45;;;20.50;92.90;;;;;;5026728;28;20080;-75
2023/09/24 01:35:29;;;;;;;3.80;1.50;;;;;;;;;;5030816;28;20045;-74
2023/09/24 01:38:00;;;;;;;3.97;1.20;;;;;;;;;;5031440;28;20073;-74
2023/09/24 01:40:27;;;;;;;4.63;1.48;;;;;;;;;;5031177;28;20054;-73
2023/09/24 01:42:58;;;;;;;4.18;1.35;;;20.50;91.70;;;;;;5028111;28;20037;-74
2023/09/24 01:45:24;;;;;;;4.97;1.50;;;20.40;92.80;;;;;;5029446;28;20124;-74
2023/09/24 01:47:51;;;;;;;4.40;1.27;;;;;;;;;;5031146;28;20083;-74
2023/09/24 01:50:17;;;;;;;6.05;1.42;;;20.50;92.80;;;;;;5029581;28;20057;-74
2023/09/24 01:52:45;;;;;;;4.63;1.33;;;20.50;91.40;;;;;;5028622;28;20045;-73
2023/09/24 01:55:15;;;;;;;3.00;1.15;;;;;;;;;;5030929;28;20049;-73
2023/09/24 01:57:44;;;;;;;6.43;1.30;;;20.40;92.80;;;;;;5030212;28;20065;-74
2023/09/24 02:00:11;;;;;;;4.13;1.52;;;20.40;92.80;;;;;;5029553;28;20046;-73
2023/09/24 02:02:40;;;;;;;4.30;1.60;;;20.40;91.60;;;;;;5029687;28;20549;-74
2023/09/24 02:05:09;;;;;;;4.80;1.35;;;20.50;92.80;;;;;;5029591;28;20103;-74
2023/09/24 02:07:37;;;;;;;4.40;1.58;;;;;;;;;;5030459;28;20061;-74
2023/09/24 02:10:05;;;;;;;3.45;1.55;;;20.40;92.70;;;;;;5030126;28;20045;-75
2023/09/24 02:12:35;;;;;;;4.35;1.33;;;20.40;91.50;;;;;;5029950;28;20041;-73
2023/09/24 02:15:03;;;;;;;5.03;1.50;;;;;;;;;;5028529;28;20030;-74
2023/09/24 02:17:29;;;;;;;4.65;1.63;;;;;;;;;;5030089;28;20044;-74
2023/09/24 02:19:58;;;;;;;3.17;1.40;;;;;;;;;;5030717;28;20040;-72
2023/09/24 02:22:25;;;;;;;4.95;1.67;;;;;;;;;;5022664;28;20097;-74
2023/09/24 02:24:51;;;;;;;7.47;1.67;;;;;;;;;;5031018;28;20037;-73
2023/09/24 02:27:18;;;;;;;5.20;1.40;;;;;;;;;;5030368;28;20033;-72
2023/09/24 02:29:46;;;;;;;5.80;1.70;;;;;;;;;;5030560;28;20045;-74
2023/09/24 02:32:13;;;;;;;4.40;1.58;;;;;;;;;;5029541;28;20399;-73
2023/09/24 02:34:39;;;;;;;5.03;1.40;;;;;;;;;;5031666;28;20446;-71
2023/09/24 02:37:05;;;;;;;5.55;1.60;;;;;;;;;;5033999;28;20458;-72
2023/09/24 02:39:32;;;;;;;5.55;1.77;;;;;;;;;;5035030;28;20482;-75
2023/09/24 02:41:58;;;;;;;5.13;1.52;;;;;;;;;;5017492;28;20422;-70
2023/09/24 02:44:24;;;;;;;4.68;1.42;;;;;;;;;;5031845;28;20041;-72
2023/09/24 02:46:51;;;;;;;5.22;1.60;;;;;;;;;;5035180;28;20518;-71
2023/09/24 02:49:17;;;;;;;5.05;1.80;;;;;;;;;;5016289;28;20446;-73
2023/09/24 02:51:44;;;;;;;6.32;1.92;;;;;;;;;;5033436;28;20041;-74
2023/09/24 02:54:10;;;;;;;4.03;1.50;;;;;;;;;;5032434;28;20454;-64
2023/09/24 02:56:36;;;;;;;3.85;1.40;;;;;;;;;;5033876;28;20041;-72
2023/09/24 02:59:03;;;;;;;5.03;1.90;;;;;;;;;;5032885;28;20053;-72
2023/09/24 03:01:33;;;;;;;4.57;1.70;;;;;;;;;;5033684;28;20052;-73
2023/09/24 03:03:59;;;;;;;4.63;1.60;;;;;;;;;;5032942;28;20132;-73
2023/09/24 03:06:26;;;;;;;4.65;1.50;;;;;;;;;;5033201;28;20095;-73
2023/09/24 03:08:53;;;;;;;4.38;1.65;;;20.30;92.70;;;;;;5016448;28;20376;-73
2023/09/24 03:11:19;;;;;;;3.83;1.63;;;;;;;;;;5030712;28;20049;-74
2023/09/24 03:13:45;;;;;;;4.18;1.45;;;;;;;;;;5034400;28;20116;-74
2023/09/24 03:16:12;;;;;;;5.15;1.75;;;;;;;;;;5033192;28;20041;-73
2023/09/24 03:18:38;;;;;;;4.63;1.50;;;;;;;;;;5033190;28;20099;-74
2023/09/24 03:21:04;;;;;;;4.93;1.30;;;;;;;;;;5033512;28;20038;-73
2023/09/24 03:23:31;;;;;;;4.70;1.70;;;20.20;90.70;;;;;;5031080;28;20050;-74
2023/09/24 03:25:57;;;;;;;4.20;1.38;;;;;;;;;;5032919;28;20449;-73
2023/09/24 03:28:24;;;;;;;3.95;1.48;;;;;;;;;;5014583;28;20483;-73
2023/09/24 03:30:51;;;;;;;4.18;1.33;;;;;;;;;;5033509;28;20061;-73
2023/09/24 03:33:18;;;;;;;3.85;1.40;;;;;;;;;;5033861;28;20041;-73
2023/09/24 03:35:45;;;;;;;3.13;1.30;;;;;;;;;;5031991;28;20049;-74
2023/09/24 03:38:12;;;;;;;4.03;1.52;;;;;;;;;;5032941;28;20037;-75
2023/09/24 03:40:38;;;;;;;4.00;1.63;;;;;;;;;;5031430;28;20149;-74
2023/09/24 03:43:04;;;;;;;3.25;1.60;;;;;;;;;;5031363;28;20442;-74
2023/09/24 03:45:30;;;;;;;3.25;1.33;;;;;;;;;;5029509;28;20128;-75
2023/09/24 03:47:56;;;;;;;4.10;1.60;;;;;;;;;;5031254;28;20050;-74
2023/09/24 03:50:23;;;;;;;5.20;1.50;;;;;;;;;;5032159;28;20163;-74
2023/09/24 03:52:49;;;;;;;3.67;1.40;;;20.30;91.30;;;;;;5033594;28;20075;-73
2023/09/24 03:55:16;;;;;;;2.90;1.20;;;;;;;;;;5032126;28;20124;-65
2023/09/24 03:57:42;;;;;;;3.42;1.60;;;;;;;;;;5030392;28;20080;-75
2023/09/24 04:00:27;;;;;;;4.53;1.40;;;;;;;;;;5031916;28;20107;-72
2023/09/24 04:02:55;;;;;;;4.00;1.77;;;;;;;;;;5002576;28;20116;-74
2023/09/24 04:05:22;;;;;;;4.60;1.63;;;;;;;;;;5031748;28;20087;-73
2023/09/24 04:07:52;;;;;;;4.75;1.60;;;;;;;;;;5033176;28;20037;-73
2023/09/24 04:10:23;;;;;;;6.60;1.60;;;20.10;91.20;;;;;;5027182;28;20109;-74
2023/09/24 04:12:53;;;;;;;3.75;1.30;;;;;;;;;;5015782;28;20120;-75
2023/09/24 04:15:27;;;;;;;4.45;1.33;;;20.10;90.50;;;;;;5015041;28;20400;-75
2023/09/24 04:17:55;;;;;;;7.50;1.52;;;;;;;;;;5009742;28;20483;-75
2023/09/24 04:20:21;;;;;;;5.68;1.40;;;;;;;;;;5014517;28;20049;-71
2023/09/24 04:22:48;;;;;;;3.90;1.23;;;20.20;92.40;;;;;;4998957;28;20136;-73
2023/09/24 04:25:15;;;;;;;3.67;1.23;;;;;;;;;;5015528;28;20410;-75
2023/09/24 04:27:44;;;;;;;2.75;1.20;;;20.00;92.20;;;;;;5026012;28;20061;-66
2023/09/24 04:30:15;;;;;;;2.80;1.30;;;20.00;92.30;;;;;;4993567;28;20033;-66
2023/09/24 04:32:41;;;;;;;2.72;1.15;;;20.00;92.20;;;;;;4999117;28;20049;-66
2023/09/24 04:35:09;;;;;;;2.13;1.05;;;19.90;92.20;;;;;;5024381;28;20080;-65
2023/09/24 04:37:38;;;;;;;1.98;1.10;;;;;;;;;;5033578;28;20048;-66
2023/09/24 04:40:11;;;;;;;1.55;0.90;;;19.90;90.90;;;;;;5025632;28;20046;-65
2023/09/24 04:42:37;;;;;;;1.85;1.05;;;20.00;92.20;;;;;;5031221;28;20049;-66
2023/09/24 04:45:06;;;;;;;3.65;1.35;;;20.10;92.30;;;;;;5031513;28;20037;-67
2023/09/24 04:47:32;;;;;;;1.92;1.17;;;20.00;92.20;;;;;;5031514;28;20123;-66
2023/09/24 04:49:58;;;;;;;2.67;1.30;;;20.00;92.20;;;;;;5031451;28;20053;-66
2023/09/24 04:52:24;;;;;;;2.65;1.27;;;20.00;92.20;;;;;;5032369;28;20034;-66
2023/09/24 04:54:52;;;;;;;3.00;1.23;;;20.10;92.20;;;;;;5033045;28;20518;-65
2023/09/24 04:57:18;;;;;;;2.85;1.10;;;20.00;92.10;;;;;;5011078;28;20054;-65
2023/09/24 04:59:44;;;;;;;1.80;1.00;;;19.80;92.10;;;;;;5029497;28;20048;-75
2023/09/24 05:02:10;;;;;;;3.70;1.30;;;20.00;92.10;;;;;;5031420;28;20484;-74
2023/09/24 05:04:36;;;;;;;1.60;1.00;;;;;;;;;;5032164;28;20068;-71
2023/09/24 05:07:03;;;;;;;3.00;1.20;;;20.00;92.10;;;;;;5024737;28;20088;-74
2023/09/24 05:09:30;;;;;;;3.30;1.05;;;;;;;;;;5032392;28;20037;-75
2023/09/24 05:11:56;;;;;;;3.47;1.20;;;;;;;;;;5029947;28;20041;-75
2023/09/24 05:14:23;;;;;;;2.63;1.00;;;;;;;;;;5032274;28;20056;-66
2023/09/24 05:16:51;;;;;;;2.70;1.20;;;19.90;92.10;;;;;;5031519;28;20446;-66
2023/09/24 05:19:17;;;;;;;2.03;1.30;;;20.00;92.10;;;;;;5031680;28;20045;-66
2023/09/24 05:21:44;;;;;;;1.80;1.10;;;20.00;92.10;;;;;;5031550;28;20083;-66
2023/09/24 05:24:11;;;;;;;2.53;1.33;;;20.00;92.10;;;;;;5023558;28;20049;-65
2023/09/24 05:26:37;;;;;;;6.72;1.75;;;19.80;92.00;;;;;;4997560;28;20156;-67
2023/09/24 05:29:04;;;;;;;2.60;1.30;;;19.80;92.00;;;;;;5030815;28;20053;-66
2023/09/24 05:31:30;;;;;;;3.25;1.33;;;20.00;92.00;;;;;;5028660;28;20104;-74
2023/09/24 05:33:57;;;;;;;3.47;1.70;;;19.90;92.00;;;;;;5029022;28;20109;-74
2023/09/24 05:36:23;;;;;;;1.92;1.30;;;19.90;92.00;;;;;;5004099;28;20128;-67
2023/09/24 05:38:49;;;;;;;2.10;1.40;;;19.90;91.60;;;;;;5026220;28;20140;-65
2023/09/24 05:41:16;;;;;;;2.95;1.65;;;20.00;92.00;;;;;;5012757;28;20052;-66
2023/09/24 05:43:47;;;;;;;1.77;1.30;;;19.80;90.50;;;;;;5030975;28;20041;-73
2023/09/24 05:46:16;;;;;;;2.85;1.65;;;19.90;92.00;;;;;;5031526;28;20459;-73
2023/09/24 05:48:44;;;;;;;2.97;1.48;;;19.90;92.00;;;;;;5030803;28;20053;-74
2023/09/24 05:51:12;;;;;;;4.43;1.73;;;20.00;90.10;;;;;;5013844;28;20116;-73
2023/09/24 05:53:39;;;;;;;3.35;1.92;;;19.90;91.90;;;;;;5012598;28;20034;-74
2023/09/24 05:56:06;;;;;;;4.75;2.00;;;;;;;;;;4990437;28;20041;-73
2023/09/24 05:58:32;;;;;;;4.03;2.10;;;20.00;91.90;;;;;;5010767;28;20077;-74
2023/09/24 06:00:59;;;;;;;3.13;1.90;;;19.90;91.80;;;;;;4977328;28;20096;-72
2023/09/24 06:03:26;;;;;;;3.58;1.75;;;;;;;;;;4996821;28;20030;-75
2023/09/24 06:05:53;;;;;;;3.50;2.10;;;;;;;;;;5012488;28;20046;-70
2023/09/24 06:08:20;;;;;;;4.10;1.80;;;20.00;91.80;;;;;;5013193;28;20721;-71
2023/09/24 06:10:46;;;;;;;3.42;1.98;;;;;;;;;;5030085;28;20045;-74
2023/09/24 06:13:15;;;;;;;3.90;1.90;;;20.00;91.60;;;;;;5012861;28;20055;-72
2023/09/24 06:15:43;;;;;;;3.90;2.08;;;20.20;91.70;;;;;;5030138;28;20041;-73
2023/09/24 06:18:10;;;;;;;3.78;2.00;;;20.30;90.20;;;;;;4971845;28;20523;-73
2023/09/24 06:20:40;;;;;;;3.47;2.08;;;20.30;90.50;;;;;;5029314;28;20034;-72
2023/09/24 06:23:06;;;;;;;3.28;1.92;;;;;;;;;;4980228;28;20128;-73
2023/09/24 06:25:34;;;;;;;4.18;2.10;;;19.60;90.20;;;;;;4992519;28;20049;-74
2023/09/24 06:28:01;;;;;;;6.05;3.58;;;20.60;91.40;;;;;;5012471;28;20060;-77
2023/09/24 06:30:27;;;;;;;7.97;3.80;;;20.40;91.20;;;;;;5013275;28;20388;-77
2023/09/24 06:32:54;;;;;;;6.00;3.97;;;20.40;89.60;;;;;;4997585;28;20438;-77
2023/09/24 06:35:20;;;;;;;5.93;3.90;;;;;;;;;;4996576;28;20050;-77
2023/09/24 06:37:46;;;;;;;5.75;3.92;;;;;;;;;;4996099;28;20086;-79
2023/09/24 06:40:13;;;;;;;6.57;4.07;;;;;;;;;;5031308;28;20042;-77
2023/09/24 06:42:39;;;;;;;6.72;4.10;;;;;;;;;;5012763;28;20037;-79
2023/09/24 06:45:08;;;;;;;6.70;4.13;;;;;;;;;;5030498;28;20037;-77
2023/09/24 06:47:36;;;;;;;8.05;4.60;;;;;;;;;;5027375;28;20055;-72
2023/09/24 06:50:03;;;;;;;6.88;4.20;;;;;;;;;;5031687;28;20442;-77
2023/09/24 06:52:32;;;;;;;7.18;4.68;;;;;;;;;;5030833;28;20045;-78
2023/09/24 06:54:59;;;;;;;6.82;4.13;;;20.50;89.40;;;;;;5033737;28;20034;-78
2023/09/24 06:57:26;;;;;;;8.07;4.50;;;;;;;;;;5034916;28;20419;-77
2023/09/24 06:59:52;;;;;;;7.25;4.25;;;;;;;;;;5036340;28;20091;-78
2023/09/24 07:02:18;;;;;;;7.05;4.22;;;;;;;;;;5032348;28;20046;-78
2023/09/24 07:04:44;;;;;;;7.32;4.03;;;;;;;;;;5028100;28;20041;-77
2023/09/24 07:07:11;;;;;;;7.57;4.10;;;;;;;;;;5034390;28;20046;-80
2023/09/24 07:09:37;;;;;;;6.13;4.25;;;;;;;;;;5035822;28;20091;-78
2023/09/24 07:12:04;;;;;;;7.90;4.10;;;;;;;;;;5027420;28;20199;-78
2023/09/24 07:14:30;;;;;;;5.95;3.40;;;20.70;90.60;;;;;;5029698;28;20092;-69
2023/09/24 07:16:57;;;;;;;7.00;4.10;;;20.80;89.70;;;;;;4994615;28;20076;-73
2023/09/24 07:19:24;;;;;;;9.13;4.13;;;;;;;;;;5028384;28;20110;-79
2023/09/24 07:21:52;;;;;;;7.20;3.85;;;;;;;;;;5032212;28;20502;-66
2023/09/24 07:24:18;;;;;;;9.35;4.03;;;;;;;;;;5017049;28;20423;-81
2023/09/24 07:26:44;;;;;;;7.25;4.35;;;21.20;90.20;;;;;;5032045;28;20037;-72
2023/09/24 07:29:11;;;;;;;7.00;3.95;;;;;;;;;;5032801;28;20083;-67
2023/09/24 07:31:37;;;;;;;7.47;4.05;;;21.10;90.00;;;;;;5016027;28;20049;-81
2023/09/24 07:34:05;;;;;;;8.32;4.10;;;21.40;90.00;;;;;;5031821;28;20053;-78
2023/09/24 07:36:31;;;;;;;6.05;3.53;;;21.40;90.00;;;;;;5031564;28;20451;-67
2023/09/24 07:38:57;;;;;;;8.73;3.55;;;21.20;89.80;;;;;;5030492;28;20060;-69
2023/09/24 07:41:27;;;;;;;6.13;3.30;;;;;;;;;;4998588;28;20053;-81
2023/09/24 07:43:53;;;;;;;8.35;3.88;;;21.40;89.60;;;;;;5014557;28;20063;-69
2023/09/24 07:46:19;;;;;;;6.70;3.80;;;21.40;89.40;;;;;;4996977;28;20041;-81
2023/09/24 07:48:49;;;;;;;9.88;4.15;;;21.60;89.40;;;;;;4997325;28;20080;-80
2023/09/24 07:51:19;;;;;;;6.95;3.72;;;21.70;89.50;;;;;;5030401;28;20049;-78
2023/09/24 07:53:46;;;;;;;9.20;4.28;;;21.80;86.70;;;;;;4999966;28;20063;-79
2023/09/24 07:56:13;;;;;;;7.05;3.60;;;;;;;;;;5012215;28;20053;-64
2023/09/24 07:58:40;;;;;;;7.70;3.95;;;21.60;89.20;;;;;;5035324;28;20503;-67
2023/09/24 08:01:13;;;;;;;8.35;3.80;;;21.60;89.10;;;;;;5033095;28;20076;-78
2023/09/24 08:03:40;;;;;;;8.05;4.15;;;;;;;;;;5027944;28;20116;-65
2023/09/24 08:06:06;;;;;;;6.72;3.88;;;21.70;88.90;;;;;;5013792;28;20037;-79
2023/09/24 08:08:34;;;;;;;7.57;3.55;;;21.80;88.90;;;;;;5032592;28;20033;-67
2023/09/24 08:11:01;;;;;;;7.57;3.70;;;21.70;88.80;;;;;;5028852;28;20667;-78
2023/09/24 08:13:27;;;;;;;8.07;3.80;;;21.70;88.90;;;;;;5014543;28;20033;-78
2023/09/24 08:15:56;;;;;;;9.82;3.92;;;21.80;88.70;;;;;;5028502;28;20037;-76
2023/09/24 08:18:22;;;;;;;7.35;3.60;;;21.80;88.60;;;;;;5030902;28;20376;-69
2023/09/24 08:20:49;;;;;;;9.30;4.03;;;21.80;88.60;;;;;;5033196;28;20558;-80
2023/09/24 08:23:15;;;;;;;7.32;3.78;;;;;;;;;;5029467;28;20557;-79
2023/09/24 08:25:41;;;;;;;7.57;3.80;;;21.90;88.60;;;;;;5034501;28;20037;-78
2023/09/24 08:28:10;;;;;;;8.30;4.00;;;;;;;;;;5032749;28;20399;-77
2023/09/24 08:30:36;;;;;;;7.60;3.95;;;22.00;88.40;;;;;;5031764;28;20049;-78
2023/09/24 08:33:04;;;;;;;7.85;3.90;;;21.80;88.20;;;;;;5032431;28;20063;-66
2023/09/24 08:35:29;;;;;;;7.95;4.15;;;22.00;88.30;;;;;;5028996;28;20041;-67
2023/09/24 08:37:56;;;;;;;7.43;4.10;;;21.90;87.20;;;;;;5036119;28;20104;-77
2023/09/24 08:40:22;;;;;;;10.15;4.10;;;22.00;88.00;;;;;;5012948;28;20041;-77
2023/09/24 08:42:50;;;;;;;8.38;3.92;;;21.90;85.10;;;;;;5032726;28;20497;-78
2023/09/24 08:45:19;;;;;;;9.77;4.13;;;21.90;87.80;;;;;;5031712;28;20042;-77
2023/09/24 08:47:46;;;;;;;10.38;4.00;;;21.90;84.50;;;;;;4998767;28;20057;-78
2023/09/24 08:50:12;;;;;;;7.88;4.18;;;21.80;86.00;;;;;;5030804;28;20055;-76
2023/09/24 08:52:40;;;;;;;8.75;3.78;;;21.70;87.70;;;;;;4991886;28;20044;-78
2023/09/24 08:55:08;;;;;;;7.45;4.10;;;21.80;87.80;;;;;;4983671;28;20053;-71
2023/09/24 08:57:35;;;;;;;9.80;4.10;;;22.00;87.80;;;;;;5000268;28;20518;-67
2023/09/24 09:00:01;;;;;;;6.85;3.72;;;21.80;87.80;;;;;;5012772;28;20045;-66
2023/09/24 09:02:27;;;;;;;8.45;3.78;;;21.70;87.60;;;;;;4992041;28;20041;-76
2023/09/24 09:04:55;;;;;;;7.60;3.92;;;21.90;87.80;;;;;;5013567;28;20054;-66
2023/09/24 09:07:21;;;;;;;7.25;3.53;;;;;;;;;;5026574;28;20049;-78
2023/09/24 09:09:54;;;;;;;9.10;3.60;;;21.70;86.50;;;;;;5011628;28;20025;-66
2023/09/24 09:12:21;;;;;;;7.07;3.75;;;;;;;;;;5011747;28;20140;-74
2023/09/24 09:14:47;;;;;;;7.95;3.25;;;21.60;87.90;;;;;;5012223;28;20053;-74
2023/09/24 09:17:13;;;;;;;7.85;4.13;;;21.70;87.90;;;;;;5030814;28;20041;-75
2023/09/24 09:20:05;;;;;;;9.63;4.18;;;21.60;87.70;;;;;;5013423;28;20048;-71
2023/09/24 09:22:35;;;;;;;8.32;3.65;;;;;;;;;;5023500;28;20053;-74
2023/09/24 09:25:04;;;;;;;7.65;3.65;;;21.70;84.10;;;;;;5027468;28;20050;-71
2023/09/24 09:27:42;;;;;;;6.93;3.22;;;21.60;87.70;;;;;;5030173;28;20061;-73
2023/09/24 09:30:17;;;;;;;7.93;3.10;;;21.60;87.80;;;;;;5029244;28;20049;-73
2023/09/24 09:32:47;;;;;;;8.40;3.17;;;21.60;87.80;;;;;;5029186;28;20037;-79
2023/09/24 09:35:14;;;;;;;8.15;3.33;;;21.60;87.70;;;;;;5012862;28;20140;-76
2023/09/24 09:37:41;;;;;;;6.43;3.17;;;21.50;87.60;;;;;;5029633;28;20045;-76
2023/09/24 09:40:10;;;;;;;7.03;3.13;;;21.70;87.80;;;;;;5014075;28;20127;-80
2023/09/24 09:42:37;;;;;;;7.72;3.20;;;21.70;84.40;;;;;;4997937;28;20088;-75
2023/09/24 09:45:10;;;;;;;7.85;2.88;;;21.60;87.50;;;;;;5008493;28;20498;-78
2023/09/24 09:48:02;;;;;;;5.90;2.65;;;21.70;87.50;;;;;;5029196;28;20933;-78
2023/09/24 09:50:28;;;;;;;9.90;2.97;;;21.70;87.30;;;;;;5030720;28;20053;-75
2023/09/24 09:52:54;;;;;;;6.95;2.75;;;21.80;87.10;;;;;;5021351;28;20096;-69
2023/09/24 09:55:20;;;;;;;10.23;3.03;;;21.70;87.00;;;;;;5011305;28;20041;-75
2023/09/24 09:57:47;;;;;;;5.57;2.90;;;22.00;84.40;;;;;;5008908;28;20038;-76
2023/09/24 10:00:16;;;;;;;10.10;2.70;;;22.00;85.20;;;;;;5011192;28;20057;-76
2023/09/24 10:02:42;;;;;;;6.53;2.90;;;21.80;86.50;;;;;;5028650;28;20041;-66
2023/09/24 10:05:10;;;;;;;6.80;2.80;;;22.00;86.60;;;;;;5031133;28;20041;-80
2023/09/24 10:07:39;;;;;;;5.90;2.60;;;22.00;87.00;;;;;;4997540;28;20037;-72
2023/09/24 10:10:30;;;;;;;5.45;2.67;;;22.00;87.10;;;;;;5025412;28;20108;-70
2023/09/24 10:12:59;;;;;;;7.28;2.78;;;22.00;86.50;;;;;;5030474;28;20052;-68
2023/09/24 10:15:30;;;;;;;6.25;2.70;;;22.10;86.40;;;;;;5032450;28;20356;-76
2023/09/24 10:18:11;;;;;;;8.85;2.97;;;22.20;86.40;;;;;;5011692;28;20087;-76
2023/09/24 10:21:04;;;;;;;7.88;2.97;;;22.40;86.30;;;;;;5026668;28;20041;-79
2023/09/24 10:23:32;;;;;;;6.20;2.78;;;22.20;83.60;;;;;;4994717;28;20115;-77
2023/09/24 10:26:03;;;;;;;8.95;3.10;;;22.30;85.40;;;;;;4996389;28;20053;-79
2023/09/24 10:28:51;;;;;;;5.70;3.10;;;22.40;86.10;;;;;;5011587;28;20041;-68
2023/09/24 10:31:20;;;;;;;6.03;2.80;;;22.20;85.90;;;;;;5011590;28;20080;-81
2023/09/24 10:33:59;;;;;;;7.22;2.80;;;22.40;86.10;;;;;;4996640;28;20034;-67
2023/09/24 10:36:33;;;;;;;6.90;2.90;;;22.50;85.90;;;;;;5027015;28;20483;-78
2023/09/24 10:39:13;;;;;;;7.43;2.63;;;22.30;85.70;;;;;;4997805;28;20048;-80
2023/09/24 10:42:12;;;;;;;8.60;2.80;;;22.70;85.10;;;;;;5011342;28;20384;-68
2023/09/24 10:44:39;;;;;;;7.90;2.85;;;22.60;85.60;;;;;;5028075;28;20046;-67
2023/09/24 10:47:30;;;;;;;6.95;2.58;;;22.70;85.40;;;;;;5013710;28;20045;-80
2023/09/24 10:50:17;;;;;;;7.53;2.30;;;22.60;84.90;;;;;;5013560;28;20053;-74
2023/09/24 10:53:01;;;;;;;8.68;2.53;;;22.70;84.60;;;;;;5027518;28;20041;-68
2023/09/24 10:55:30;;;;;;;8.10;2.58;;;22.70;84.40;;;;;;5016756;28;20041;-68
2023/09/24 10:57:58;;;;;;;7.65;2.50;;;22.60;84.10;;;;;;5033531;28;20403;-67
2023/09/24 11:00:26;;;;;;;8.02;2.58;;;22.90;81.50;;;;;;5031328;28;20034;-76
2023/09/24 11:03:00;;;;;;;7.28;2.60;;;23.00;84.30;;;;;;5034082;28;20115;-76
2023/09/24 11:05:27;;;;;;;11.55;2.60;;;22.70;84.20;;;;;;5027118;28;20068;-66
2023/09/24 11:07:54;;;;;;;6.45;2.25;;;22.80;84.40;;;;;;5031603;28;20099;-67
2023/09/24 11:10:25;;;;;;;5.80;2.45;;;22.90;84.10;;;;;;5034607;28;20056;-68
2023/09/24 11:12:56;;;;;;;5.05;2.13;;;23.10;84.00;;;;;;5030957;28;20057;-66
2023/09/24 11:15:24;;;;;;;5.88;2.22;;;23.10;83.80;;;;;;5030143;28;20057;-67
2023/09/24 11:17:50;;;;;;;7.65;2.38;;;23.00;83.60;;;;;;5026533;28;20071;-79
2023/09/24 11:20:17;;;;;;;7.50;2.67;;;23.10;83.60;;;;;;5031510;28;20053;-79
2023/09/24 11:22:56;;;;;;;6.47;2.42;;;23.10;83.50;;;;;;5017648;28;20124;-80
2023/09/24 11:25:22;;;;;;;6.45;2.58;;;23.20;83.40;;;;;;5033069;28;20540;-78
2023/09/24 11:27:50;;;;;;;6.68;2.65;;;23.10;80.30;;;;;;5030841;28;20041;-74
2023/09/24 11:30:17;;;;;;;6.80;2.38;;;23.30;79.50;;;;;;5027026;28;20135;-77
2023/09/24 11:32:43;;;;;;;6.50;2.65;;;23.00;83.00;;;;;;4999925;28;20124;-77
2023/09/24 11:35:10;;;;;;;9.55;2.70;;;23.30;80.20;;;;;;5031552;28;20045;-65
2023/09/24 11:37:53;;;;;;;8.75;2.65;;;23.30;82.70;;;;;;4995378;28;20624;-65
2023/09/24 11:40:42;;;;;;;5.85;2.10;;;23.20;81.30;;;;;;5027668;28;20049;-74
2023/09/24 11:43:11;;;;;;;7.97;2.22;;;23.30;82.80;;;;;;5024501;28;20033;-72
2023/09/24 11:45:53;;;;;;;5.85;2.03;;;23.50;83.00;;;;;;5033643;28;20061;-75
2023/09/24 11:48:20;;;;;;;6.05;2.08;;;23.60;80.60;;;;;;5032817;28;20085;-75
2023/09/24 11:50:48;;;;;;;5.75;2.25;;;23.40;82.90;;;;;;5033738;28;20089;-74
2023/09/24 11:53:20;;;;;;;7.68;2.53;;;23.50;80.70;;;;;;5017684;28;20446;-75
2023/09/24 11:55:48;;;;;;;6.05;2.13;;;23.50;83.60;;;;;;5008150;28;20514;-72
2023/09/24 11:58:17;;;;;;;5.70;2.08;;;24.50;81.10;;;;;;4997672;28;20084;-73
2023/09/24 12:00:44;;;;;;;6.03;2.17;;;23.80;80.30;;;;;;5000752;28;20191;-75
2023/09/24 12:03:10;;;;;;;4.28;1.90;;;;;;;;;;5000860;28;20128;-75
2023/09/24 12:05:37;;;;;;;5.68;2.00;;;;;;;;;;5031416;28;20419;-74
2023/09/24 12:08:03;;;;;;;5.88;2.10;;;23.80;83.30;;;;;;5009474;28;20060;-75
2023/09/24 12:10:33;;;;;;;5.70;1.85;;;23.60;83.10;;;;;;5016780;28;20399;-75
2023/09/24 12:13:04;;;;;;;5.30;2.03;;;;;;;;;;4992048;28;20046;-75
2023/09/24 12:15:30;;;;;;;6.10;2.30;;;;;;;;;;5013211;28;20491;-75
2023/09/24 12:17:57;;;;;;;6.65;2.22;;;23.60;83.30;;;;;;4996519;28;20115;-75
2023/09/24 12:20:26;;;;;;;4.85;2.10;;;23.70;80.60;;;;;;4980908;28;20052;-74
2023/09/24 12:22:52;;;;;;;8.70;2.20;;;23.90;83.90;;;;;;4996902;28;20037;-74
2023/09/24 12:25:18;;;;;;;8.68;2.83;;;23.80;81.20;;;;;;4998632;28;20067;-74
2023/09/24 12:27:44;;;;;;;5.10;1.80;;;23.80;80.70;;;;;;4996488;28;20119;-75
2023/09/24 12:30:12;;;;;;;6.13;2.00;;;23.80;80.80;;;;;;4996917;28;20050;-74
2023/09/24 12:32:39;;;;;;;5.20;2.28;;;23.80;83.20;;;;;;4980722;28;20129;-75
2023/09/24 12:35:07;;;;;;;5.53;1.90;;;23.70;83.00;;;;;;4997598;28;20147;-73
2023/09/24 12:37:34;;;;;;;4.95;1.85;;;23.80;83.20;;;;;;5012934;28;20038;-74
2023/09/24 12:40:06;;;;;;;4.78;1.80;;;23.80;80.90;;;;;;5014270;28;20046;-75
2023/09/24 12:42:35;;;;;;;4.50;1.88;;;23.70;81.20;;;;;;4995741;28;20042;-74
2023/09/24 12:45:02;;;;;;;4.13;1.85;;;23.80;83.10;;;;;;5015838;28;20056;-75
2023/09/24 12:47:35;;;;;;;4.43;1.95;;;21.30;79.70;;;;;;5000852;28;20136;-75
2023/09/24 12:50:03;;;;;;;5.10;1.80;;;23.80;83.10;;;;;;5014695;28;20120;-75
2023/09/24 12:52:46;;;;;;;5.35;2.13;;;23.80;80.90;;;;;;5016027;28;20059;-75
2023/09/24 12:55:17;;;;;;;6.88;2.20;;;23.60;80.30;;;;;;4998076;28;20058;-75
2023/09/24 12:57:46;;;;;;;5.00;1.75;;;;;;;;;;4998057;28;20503;-75
2023/09/24 13:00:14;;;;;;;4.88;1.95;;;23.60;83.00;;;;;;4999732;28;20037;-75
2023/09/24 13:02:45;;;;;;;5.05;2.00;;;24.50;81.20;;;;;;4999592;28;20056;-75
2023/09/24 13:05:14;;;;;;;4.47;1.88;;;23.50;80.10;;;;;;4998592;28;20081;-74
2023/09/24 13:07:42;;;;;;;4.70;1.90;;;;;;;;;;4995960;28;20085;-75
2023/09/24 13:10:12;;;;;;;4.75;1.90;;;23.60;83.60;;;;;;5014574;28;20057;-69
2023/09/24 13:12:38;;;;;;;4.65;1.85;;;23.90;83.40;;;;;;5014770;28;20053;-76
2023/09/24 13:15:06;;;;;;;4.53;1.90;;;23.60;80.30;;;;;;5032224;28;20431;-76
2023/09/24 13:17:35;;;;;;;4.35;1.77;;;23.60;80.10;;;;;;5005957;28;20048;-75
2023/09/24 13:20:02;;;;;;;4.05;1.70;;;23.90;80.60;;;;;;5032794;28;20045;-73
2023/09/24 13:22:28;;;;;;;3.95;1.70;;;23.60;80.50;;;;;;5032565;28;20038;-73
2023/09/24 13:24:55;;;;;;;5.25;1.90;;;23.60;82.90;;;;;;5032853;28;20044;-73
2023/09/24 13:27:22;;;;;;;4.50;1.77;;;;;;;;;;5030968;28;20132;-73
2023/09/24 13:29:48;;;;;;;3.75;1.60;;;23.40;82.70;;;;;;5030578;28;20399;-72
2023/09/24 13:32:19;;;;;;;4.22;1.80;;;23.50;80.40;;;;;;5031409;28;20391;-73
2023/09/24 13:34:46;;;;;;;4.15;1.80;;;;;;;;;;5031821;28;20372;-73